Time;durP1;ratioP1;P1;durP2;ratioP2;P2;SDS_P1;SDS_P2;PMS_P1;PMS_P2;Temp;Humidity;BMP_temperature;BMP_pressure;BME280_temperature;BME280_humidity;BME280_pressure;Samples;Min_cycle;Max_cycle;Signal;HPM_P1;HPM_P2
2022/08/04 00:09:51;;;;;;;13.5;16.4;;;;;;;16.6;100;98780;;;;
2022/08/04 00:20:51;;;;;;;13.5;16.4;;;;;;;16.5;100;98780;;;;
2022/08/04 00:30:51;;;;;;;13.9;16.5;;;;;;;16.4;100;98780;;;;
2022/08/04 00:41:51;;;;;;;13.9;16.5;;;;;;;16.3;100;98780;;;;
2022/08/04 00:52:51;;;;;;;13.9;16.5;;;;;;;16.2;100;98780;;;;
2022/08/04 01:02:51;;;;;;;15.8;22.2;;;;;;;16.1;100;98790;;;;
2022/08/04 01:12:51;;;;;;;15.8;22.2;;;;;;;16;100;98780;;;;
2022/08/04 01:22:51;;;;;;;15.8;22.2;;;;;;;15.9;100;98770;;;;
2022/08/04 01:33:51;;;;;;;16.7;20.2;;;;;;;15.9;100;98780;;;;
2022/08/04 01:43:51;;;;;;;16.7;20.2;;;;;;;15.7;100;98780;;;;
2022/08/04 01:53:51;;;;;;;16.7;20.2;;;;;;;15.6;100;98780;;;;
2022/08/04 02:04:51;;;;;;;14.5;17.1;;;;;;;15.5;100;98780;;;;
2022/08/04 02:14:51;;;;;;;14.5;17.1;;;;;;;15.4;100;98780;;;;
2022/08/04 02:24:51;;;;;;;14.5;17.1;;;;;;;15.2;100;98770;;;;
2022/08/04 02:35:51;;;;;;;15.3;16.9;;;;;;;15.1;100;98770;;;;
2022/08/04 02:46:51;;;;;;;15.3;16.9;;;;;;;14.9;100;98770;;;;
2022/08/04 02:56:51;;;;;;;14.9;17.1;;;;;;;14.9;100;98760;;;;
2022/08/04 03:07:51;;;;;;;14.9;17.1;;;;;;;14.8;100;98760;;;;
2022/08/04 03:17:51;;;;;;;14.9;17.1;;;;;;;14.6;100;98760;;;;
2022/08/04 03:28:51;;;;;;;14;16.8;;;;;;;14.8;100;98760;;;;
2022/08/04 03:39:51;;;;;;;;;;;;;;;15;;98760;;;;
2022/08/04 03:49:51;;;;;;;14;16.8;;;;;;;15.1;100;98770;;;;
2022/08/04 04:00:51;;;;;;;15.3;17.4;;;;;;;15.2;100;98770;;;;
2022/08/04 04:11:51;;;;;;;15.3;17.4;;;;;;;15.2;100;98780;;;;
2022/08/04 04:21:51;;;;;;;15.3;17.4;;;;;;;15.4;100;98780;;;;
2022/08/04 04:32:51;;;;;;;15;19.8;;;;;;;15.7;100;98780;;;;
2022/08/04 04:43:51;;;;;;;15;19.8;;;;;;;16.1;100;98780;;;;
2022/08/04 04:54:51;;;;;;;15;19.8;;;;;;;16.6;100;98800;;;;
2022/08/04 05:05:51;;;;;;;14.3;18;;;;;;;17.1;100;98800;;;;
2022/08/04 05:15:51;;;;;;;14.3;18;;;;;;;17.5;100;98810;;;;
2022/08/04 05:25:51;;;;;;;13;15.5;;;;;;;18.1;100;98810;;;;
2022/08/04 05:36:51;;;;;;;13;15.5;;;;;;;18.6;100;98810;;;;
2022/08/04 05:47:51;;;;;;;13;15.5;;;;;;;19.2;100;98820;;;;
2022/08/04 05:58:51;;;;;;;10.9;13;;;;;;;19.8;100;98820;;;;
2022/08/04 06:08:51;;;;;;;10.9;13;;;;;;;20.1;100;98820;;;;
2022/08/04 06:19:51;;;;;;;10.9;13;;;;;;;20.7;100;98840;;;;
2022/08/04 06:30:51;;;;;;;8.8;12.5;;;;;;;21.2;100;98840;;;;
2022/08/04 06:41:51;;;;;;;8.8;12.5;;;;;;;21.8;100;98850;;;;
2022/08/04 06:52:51;;;;;;;8.8;12.5;;;;;;;22.5;100;98840;;;;
2022/08/04 07:03:51;;;;;;;6.9;10.3;;;;;;;22.9;100;98830;;;;
2022/08/04 07:13:51;;;;;;;6.9;10.3;;;;;;;23.4;100;98830;;;;
2022/08/04 07:24:51;;;;;;;6.9;10.3;;;;;;;23.6;100;98840;;;;
2022/08/04 07:35:51;;;;;;;3.8;6.3;;;;;;;24;100;98840;;;;
2022/08/04 07:45:51;;;;;;;3.8;6.3;;;;;;;24.3;100;98840;;;;
2022/08/04 07:56:51;;;;;;;2.3;4.8;;;;;;;24.7;100;98830;;;;
2022/08/04 08:06:51;;;;;;;2.3;4.8;;;;;;;24.8;100;98830;;;;
2022/08/04 08:17:51;;;;;;;2.3;4.8;;;;;;;25;98.8;98830;;;;
2022/08/04 08:28:51;;;;;;;2.3;4.2;;;;;;;25.4;100;98830;;;;
2022/08/04 08:38:51;;;;;;;2.3;4.2;;;;;;;25.8;100;98840;;;;
2022/08/04 08:49:51;;;;;;;2.3;4.2;;;;;;;26.1;100;98840;;;;
2022/08/04 08:59:51;;;;;;;2.7;4.5;;;;;;;26.4;99.7;98840;;;;
2022/08/04 09:10:51;;;;;;;2.7;4.5;;;;;;;26.4;96.6;98850;;;;
2022/08/04 09:20:51;;;;;;;2.7;4.5;;;;;;;26.4;90.8;98840;;;;
2022/08/04 09:31:51;;;;;;;2.2;4.8;;;;;;;26.4;91.7;98840;;;;
2022/08/04 09:41:51;;;;;;;2.2;4.8;;;;;;;26.6;92.1;98840;;;;
2022/08/04 09:52:51;;;;;;;2.2;4.8;;;;;;;26.5;89;98840;;;;
2022/08/04 10:03:51;;;;;;;2.4;6.3;;;;;;;26.6;91.9;98830;;;;
2022/08/04 10:14:51;;;;;;;2.4;6.3;;;;;;;27.1;87.8;98820;;;;
2022/08/04 10:24:51;;;;;;;2.4;6.3;;;;;;;26.9;86.8;98820;;;;
2022/08/04 10:34:51;;;;;;;2.1;4.1;;;;;;;27;85.1;98810;;;;
2022/08/04 10:44:51;;;;;;;2.1;4.1;;;;;;;27.1;82.8;98810;;;;
2022/08/04 10:54:51;;;;;;;2.1;4.1;;;;;;;27.3;83.6;98810;;;;
2022/08/04 11:05:51;;;;;;;2.2;4.3;;;;;;;27.6;84.1;98800;;;;
2022/08/04 11:16:51;;;;;;;2.2;4.3;;;;;;;27.3;82.9;98800;;;;
2022/08/04 11:27:51;;;;;;;2.5;5.3;;;;;;;27.6;84;98800;;;;
2022/08/04 11:37:51;;;;;;;2.5;5.3;;;;;;;27.9;79.3;98800;;;;
2022/08/04 11:48:51;;;;;;;2.5;5.3;;;;;;;28.2;72.4;98800;;;;
2022/08/04 11:58:51;;;;;;;2.6;4.5;;;;;;;28.1;81.4;98780;;;;
2022/08/04 12:09:51;;;;;;;2.6;4.5;;;;;;;28;80.9;98780;;;;
2022/08/04 12:20:51;;;;;;;2.6;4.5;;;;;;;28;80.7;98760;;;;
2022/08/04 12:31:51;;;;;;;2.5;4.8;;;;;;;28.6;79.6;98760;;;;
2022/08/04 12:41:51;;;;;;;2.5;4.8;;;;;;;28.6;77.9;98760;;;;
2022/08/04 12:51:51;;;;;;;2.5;4.8;;;;;;;28.6;75.8;98750;;;;
2022/08/04 13:01:51;;;;;;;2.6;5.7;;;;;;;28.4;76.6;98740;;;;
2022/08/04 13:12:51;;;;;;;2.6;5.7;;;;;;;28.6;79.3;98730;;;;
2022/08/04 13:23:51;;;;;;;2.6;5.7;;;;;;;28.6;75.2;98720;;;;
2022/08/04 13:33:51;;;;;;;2.8;5;;;;;;;28.6;73.9;98720;;;;
2022/08/04 13:44:51;;;;;;;2.8;5;;;;;;;29;76.9;98720;;;;
2022/08/04 13:54:51;;;;;;;2.8;5;;;;;;;29.2;75;98710;;;;
2022/08/04 14:04:51;;;;;;;2.4;4.2;;;;;;;29.6;74.1;98710;;;;
2022/08/04 14:15:51;;;;;;;2.4;4.2;;;;;;;29.2;74.6;98700;;;;
2022/08/04 14:26:51;;;;;;;3.1;7.3;;;;;;;29.9;74.3;98690;;;;
2022/08/04 14:37:51;;;;;;;3.1;7.3;;;;;;;30.3;72.6;98690;;;;
2022/08/04 14:47:51;;;;;;;3.1;7.3;;;;;;;30.2;68.8;98680;;;;
2022/08/04 14:57:51;;;;;;;2.7;5.3;;;;;;;30;70.1;98670;;;;
2022/08/04 15:08:51;;;;;;;2.7;5.3;;;;;;;30.5;67.1;98680;;;;
2022/08/04 15:19:51;;;;;;;2.7;5.3;;;;;;;32.5;66.1;98680;;;;
2022/08/04 15:29:51;;;;;;;4;6.8;;;;;;;34.1;55.5;98690;;;;
2022/08/04 15:40:51;;;;;;;4;6.8;;;;;;;34.5;51.7;98690;;;;
2022/08/04 15:50:51;;;;;;;4;6.8;;;;;;;34.8;50.4;98680;;;;
2022/08/04 16:01:51;;;;;;;3.9;6.9;;;;;;;35;49;98680;;;;
2022/08/04 16:11:51;;;;;;;3.9;6.9;;;;;;;34.1;51.3;98670;;;;
2022/08/04 16:22:51;;;;;;;3.9;6.9;;;;;;;32;56.6;98650;;;;
2022/08/04 16:33:52;;;;;;;2.1;4.4;;;;;;;30.1;62;98650;;;;
2022/08/04 16:44:51;;;;;;;2.1;4.4;;;;;;;29.2;64.3;98640;;;;
2022/08/04 16:55:52;;;;;;;2.1;4.4;;;;;;;27.6;70.1;98630;;;;
2022/08/04 17:06:51;;;;;;;2.3;4.9;;;;;;;27;72.8;98630;;;;
2022/08/04 17:16:51;;;;;;;2.3;4.9;;;;;;;;74.4;98640;;;;
2022/08/04 17:27:51;;;;;;;3.2;6.3;;;;;;;26.9;73.5;98630;;;;
2022/08/04 17:38:53;;;;;;;3.2;6.3;;;;;;;26.1;78.4;98630;;;;
2022/08/04 17:48:51;;;;;;;3.2;6.3;;;;;;;25.6;78;98630;;;;
2022/08/04 17:58:51;;;;;;;3;5.6;;;;;;;25.1;79.8;98630;;;;
2022/08/04 18:09:51;;;;;;;3;5.6;;;;;;;24.6;83.8;98630;;;;
2022/08/04 18:19:51;;;;;;;3;5.6;;;;;;;24.1;88.5;98630;;;;
2022/08/04 18:30:51;;;;;;;3.7;8.2;;;;;;;23.6;91.7;98640;;;;
2022/08/04 18:41:51;;;;;;;3.7;8.2;;;;;;;23;96.2;98650;;;;
2022/08/04 18:51:51;;;;;;;3.7;8.2;;;;;;;22.7;98.8;98650;;;;
2022/08/04 19:01:51;;;;;;;3.8;6.9;;;;;;;22.4;99.3;98650;;;;
2022/08/04 19:12:51;;;;;;;3.8;6.9;;;;;;;22;100;98650;;;;
2022/08/04 19:23:51;;;;;;;3.8;6.9;;;;;;;21.7;100;98650;;;;
2022/08/04 19:33:51;;;;;;;5.2;8.6;;;;;;;21.5;100;98660;;;;
2022/08/04 19:44:51;;;;;;;;;;;;;;;;;;;;;
2022/08/04 19:54:51;;;;;;;5.2;8.6;;;;;;;21;100;98650;;;;
2022/08/04 20:04:51;;;;;;;6.1;10.7;;;;;;;20.8;100;98650;;;;
2022/08/04 20:15:52;;;;;;;6.1;10.7;;;;;;;20.5;100;98650;;;;
2022/08/04 20:25:51;;;;;;;6.1;10.7;;;;;;;20.3;100;98650;;;;
2022/08/04 20:36:51;;;;;;;5.5;8.9;;;;;;;20.1;100;98650;;;;
2022/08/04 20:46:51;;;;;;;5.5;8.9;;;;;;;20;100;98650;;;;
2022/08/04 20:57:51;;;;;;;5.4;10.6;;;;;;;19.8;100;98650;;;;
2022/08/04 21:08:51;;;;;;;5.4;10.6;;;;;;;19.7;100;98640;;;;
2022/08/04 21:18:51;;;;;;;5.4;10.6;;;;;;;19.6;100;98640;;;;
2022/08/04 21:29:51;;;;;;;5;7.7;;;;;;;19.4;100;98640;;;;
2022/08/04 21:39:51;;;;;;;5;7.7;;;;;;;19.2;100;98630;;;;
2022/08/04 21:50:52;;;;;;;5;7.7;;;;;;;19;100;98640;;;;
2022/08/04 22:00:51;;;;;;;4.6;8;;;;;;;18.7;100;98640;;;;
2022/08/04 22:11:51;;;;;;;4.6;8;;;;;;;18.5;100;98630;;;;
2022/08/04 22:21:51;;;;;;;4.6;8;;;;;;;18.3;100;98630;;;;
2022/08/04 22:31:51;;;;;;;10.9;16.2;;;;;;;18.1;100;98630;;;;
2022/08/04 22:42:51;;;;;;;10.9;16.2;;;;;;;17.9;100;98630;;;;
2022/08/04 22:52:51;;;;;;;10.9;16.2;;;;;;;17.6;100;98620;;;;
2022/08/04 23:02:51;;;;;;;7.8;14.2;;;;;;;17.4;100;98610;;;;
2022/08/04 23:12:51;;;;;;;7.8;14.2;;;;;;;17.2;100;98600;;;;
2022/08/04 23:23:51;;;;;;;7.8;14.2;;;;;;;17.1;100;98590;;;;
2022/08/04 23:34:51;;;;;;;6.5;11.4;;;;;;;16.9;100;98590;;;;
2022/08/04 23:44:53;;;;;;;6.5;11.4;;;;;;;16.7;100;98580;;;;
2022/08/04 23:55:51;;;;;;;6.5;11.4;;;;;;;16.7;100;98580;;;;
